Time;durP1;ratioP1;P1;durP2;ratioP2;P2;SDS_P1;SDS_P2;PMS_P1;PMS_P2;Temp;Humidity;BMP_temperature;BMP_pressure;BME280_temperature;BME280_humidity;BME280_pressure;Samples;Min_cycle;Max_cycle;Signal;HPM_P1;HPM_P2
2023/09/17 00:00:51;;;;;;;29.50;24.00;;;15.70;99.90;;;;;;2092546;28;20035;-79
2023/09/17 00:01:52;;;;;;;25.98;23.05;;;15.70;99.90;;;;;;2088126;28;20037;-78
2023/09/17 00:02:53;;;;;;;31.00;24.58;;;15.70;99.90;;;;;;2088571;28;20017;-79
2023/09/17 00:03:54;;;;;;;30.33;24.67;;;15.70;99.90;;;;;;2081404;28;20051;-79
2023/09/17 00:04:55;;;;;;;28.20;23.48;;;15.70;99.90;;;;;;2087840;28;20024;-79
2023/09/17 00:05:56;;;;;;;30.92;25.38;;;15.70;99.90;;;;;;2093595;28;20040;-77
2023/09/17 00:06:56;;;;;;;31.05;24.88;;;15.70;99.90;;;;;;2091300;28;20028;-79
2023/09/17 00:07:57;;;;;;;29.58;24.23;;;15.60;99.90;;;;;;2081113;28;20029;-78
2023/09/17 00:08:57;;;;;;;27.90;24.25;;;15.60;99.90;;;;;;2083715;28;20029;-78
2023/09/17 00:09:58;;;;;;;28.30;23.88;;;15.60;99.90;;;;;;2081559;28;20116;-78
2023/09/17 00:10:59;;;;;;;28.48;24.08;;;15.60;99.90;;;;;;2079384;28;20395;-79
2023/09/17 00:11:59;;;;;;;30.10;24.02;;;15.60;99.90;;;;;;2089338;28;20099;-79
2023/09/17 00:13:00;;;;;;;28.95;23.75;;;15.70;99.90;;;;;;2089765;28;20060;-80
2023/09/17 00:14:01;;;;;;;27.70;23.98;;;15.70;99.90;;;;;;2091524;28;20111;-79
2023/09/17 00:15:03;;;;;;;29.15;23.33;;;15.60;99.90;;;;;;2090185;28;20031;-79
2023/09/17 00:16:04;;;;;;;27.77;23.33;;;15.70;99.90;;;;;;2090711;28;20039;-79
2023/09/17 00:17:04;;;;;;;30.98;23.63;;;15.60;99.90;;;;;;2091465;28;20082;-79
2023/09/17 00:18:05;;;;;;;27.27;22.60;;;15.70;99.90;;;;;;2086419;28;20059;-79
2023/09/17 00:19:06;;;;;;;29.65;22.90;;;15.60;99.90;;;;;;2086792;28;20021;-79
2023/09/17 00:20:10;;;;;;;28.77;23.10;;;15.60;99.90;;;;;;2090879;28;20024;-79
2023/09/17 00:21:11;;;;;;;26.55;22.60;;;15.60;99.90;;;;;;2100911;28;20481;-79
2023/09/17 00:22:14;;;;;;;28.17;22.77;;;15.60;99.90;;;;;;2087006;28;20077;-79
2023/09/17 00:23:15;;;;;;;26.80;23.23;;;15.60;99.90;;;;;;2089543;28;20029;-79
2023/09/17 00:24:16;;;;;;;27.40;22.25;;;15.60;99.90;;;;;;2091295;28;20495;-80
2023/09/17 00:25:16;;;;;;;24.52;21.88;;;15.60;99.90;;;;;;2088487;28;20930;-80
2023/09/17 00:26:17;;;;;;;36.30;29.92;;;15.60;99.90;;;;;;2086319;28;20124;-80
2023/09/17 00:27:19;;;;;;;32.55;26.95;;;15.60;99.90;;;;;;2087972;28;20068;-80
2023/09/17 00:28:20;;;;;;;27.45;23.85;;;15.60;99.90;;;;;;2088178;28;20028;-79
2023/09/17 00:29:23;;;;;;;28.30;22.60;;;15.50;99.90;;;;;;2088593;28;20028;-79
2023/09/17 00:30:25;;;;;;;25.92;21.77;;;15.60;99.90;;;;;;2084657;28;20458;-78
2023/09/17 00:31:25;;;;;;;25.10;21.15;;;15.50;99.90;;;;;;2083118;28;20116;-79
2023/09/17 00:32:26;;;;;;;25.63;22.05;;;15.60;99.90;;;;;;2086315;28;20032;-78
2023/09/17 00:33:27;;;;;;;24.52;20.83;;;15.60;99.90;;;;;;2091687;28;20202;-78
2023/09/17 00:34:28;;;;;;;24.38;20.27;;;15.60;99.90;;;;;;2080936;28;20463;-77
2023/09/17 00:35:28;;;;;;;25.05;20.55;;;15.60;99.90;;;;;;2064189;28;20029;-78
2023/09/17 00:36:29;;;;;;;25.27;20.67;;;15.50;99.90;;;;;;2073322;28;20305;-78
2023/09/17 00:37:29;;;;;;;22.52;20.13;;;15.50;99.90;;;;;;2087738;28;20120;-78
2023/09/17 00:38:30;;;;;;;25.17;20.00;;;15.50;99.90;;;;;;2091822;28;20032;-80
2023/09/17 00:39:31;;;;;;;22.40;19.98;;;15.50;99.90;;;;;;2082798;28;20059;-79
2023/09/17 00:40:34;;;;;;;23.70;19.88;;;15.50;99.90;;;;;;2082822;28;20526;-79
2023/09/17 00:41:35;;;;;;;22.42;19.63;;;15.50;99.90;;;;;;2093966;28;20043;-78
2023/09/17 00:42:36;;;;;;;24.73;20.27;;;15.40;99.90;;;;;;2089268;28;20024;-79
2023/09/17 00:43:37;;;;;;;21.92;19.63;;;15.40;99.90;;;;;;2078419;28;20043;-79
2023/09/17 00:44:38;;;;;;;24.42;20.00;;;15.40;99.90;;;;;;2090623;28;20119;-79
2023/09/17 00:45:41;;;;;;;21.42;19.10;;;15.40;99.90;;;;;;2081031;28;20050;-79
2023/09/17 00:46:42;;;;;;;22.02;19.23;;;15.40;99.90;;;;;;2082255;28;20029;-80
2023/09/17 00:47:43;;;;;;;22.75;19.33;;;15.40;99.90;;;;;;2091533;28;20030;-79
2023/09/17 00:48:44;;;;;;;22.42;19.80;;;15.40;99.90;;;;;;2084183;28;20041;-79
2023/09/17 00:49:45;;;;;;;21.88;18.60;;;15.40;99.90;;;;;;2089833;28;20477;-79
2023/09/17 00:50:46;;;;;;;21.77;18.80;;;15.40;99.90;;;;;;2090342;28;20040;-79
2023/09/17 00:51:46;;;;;;;21.80;18.70;;;15.40;99.90;;;;;;2087655;28;20514;-79
2023/09/17 00:52:47;;;;;;;21.27;18.45;;;15.40;99.90;;;;;;2091996;28;20418;-80
2023/09/17 00:53:48;;;;;;;21.88;18.33;;;15.40;99.90;;;;;;2092427;28;20083;-80
2023/09/17 00:54:50;;;;;;;21.27;18.20;;;15.40;99.90;;;;;;2079244;28;20034;-80
2023/09/17 00:55:51;;;;;;;20.83;18.23;;;15.40;99.90;;;;;;2088286;28;20025;-80
2023/09/17 00:56:52;;;;;;;23.25;18.65;;;15.40;99.90;;;;;;2090118;28;20430;-79
2023/09/17 00:57:53;;;;;;;21.98;17.92;;;15.40;99.90;;;;;;2090269;28;20048;-79
2023/09/17 00:58:54;;;;;;;21.35;17.92;;;15.40;99.90;;;;;;2084966;28;20400;-79
2023/09/17 00:59:54;;;;;;;23.40;18.15;;;15.30;99.90;;;;;;2082954;28;20078;-79
2023/09/17 01:00:58;;;;;;;20.52;17.42;;;15.40;99.90;;;;;;2092434;28;20032;-79
2023/09/17 01:01:59;;;;;;;19.15;16.92;;;15.30;99.90;;;;;;2083048;28;20500;-74
2023/09/17 01:03:04;;;;;;;21.75;17.52;;;15.40;99.90;;;;;;2086519;28;20029;-79
2023/09/17 01:04:07;;;;;;;19.35;17.25;;;15.30;99.90;;;;;;2075532;28;20080;-80
2023/09/17 01:05:08;;;;;;;21.73;18.02;;;15.30;99.90;;;;;;2081136;28;20020;-80
2023/09/17 01:06:12;;;;;;;23.38;17.42;;;15.30;99.90;;;;;;2076992;28;20084;-81
2023/09/17 01:07:13;;;;;;;20.50;17.40;;;15.30;99.90;;;;;;2079129;28;20504;-80
2023/09/17 01:08:14;;;;;;;20.58;17.85;;;15.30;99.90;;;;;;2085336;28;20044;-80
2023/09/17 01:09:16;;;;;;;20.63;17.52;;;15.30;99.90;;;;;;2076964;28;20041;-80
2023/09/17 01:10:17;;;;;;;20.80;17.38;;;15.30;99.90;;;;;;2082520;28;20032;-80
2023/09/17 01:11:19;;;;;;;20.02;17.27;;;15.30;99.90;;;;;;2079924;28;20459;-80
2023/09/17 01:12:20;;;;;;;19.40;17.33;;;15.20;99.90;;;;;;2068978;28;20033;-80
2023/09/17 01:13:23;;;;;;;19.70;16.92;;;15.30;99.90;;;;;;2085470;28;20033;-80
2023/09/17 01:14:24;;;;;;;19.85;17.38;;;15.20;99.90;;;;;;2094021;28;20534;-80
2023/09/17 01:15:27;;;;;;;20.30;17.63;;;15.20;99.90;;;;;;2091087;28;20138;-80
2023/09/17 01:16:28;;;;;;;19.15;16.52;;;15.20;99.90;;;;;;2091304;28;20049;-78
2023/09/17 01:17:30;;;;;;;20.63;16.75;;;15.20;99.90;;;;;;2094466;28;20051;-79
2023/09/17 01:18:32;;;;;;;18.40;16.15;;;15.20;99.90;;;;;;2070558;28;20026;-77
2023/09/17 01:19:33;;;;;;;18.90;16.10;;;15.20;99.90;;;;;;2081550;28;20049;-78
2023/09/17 01:20:47;;;;;;;18.27;16.27;;;15.20;99.90;;;;;;2074628;28;20075;-79
2023/09/17 01:22:01;;;;;;;18.67;16.67;;;15.20;99.90;;;;;;2080503;28;20034;-80
2023/09/17 01:23:23;;;;;;;19.92;16.27;;;15.20;99.90;;;;;;2080836;28;20045;-80
2023/09/17 01:24:28;;;;;;;19.20;16.48;;;15.20;99.90;;;;;;2087845;28;20020;-80
2023/09/17 01:25:35;;;;;;;20.10;16.45;;;15.20;99.90;;;;;;2074305;28;20477;-75
2023/09/17 01:26:39;;;;;;;18.77;15.82;;;15.20;99.90;;;;;;2086497;28;20040;-80
2023/09/17 01:27:40;;;;;;;19.60;16.58;;;15.20;99.90;;;;;;2088079;28;20048;-80
2023/09/17 01:28:41;;;;;;;17.77;15.88;;;15.20;99.90;;;;;;2090919;28;20050;-80
2023/09/17 01:29:43;;;;;;;18.23;15.77;;;15.10;99.90;;;;;;2086054;28;20040;-80
2023/09/17 01:30:45;;;;;;;18.88;16.27;;;15.10;99.90;;;;;;2088352;28;20415;-79
2023/09/17 01:31:46;;;;;;;17.67;15.60;;;15.10;99.90;;;;;;2091120;28;20036;-79
2023/09/17 01:32:47;;;;;;;17.90;15.95;;;15.10;99.90;;;;;;2074622;28;20444;-79
2023/09/17 01:33:48;;;;;;;19.95;16.13;;;15.10;99.90;;;;;;2089461;28;20028;-79
2023/09/17 01:34:52;;;;;;;17.80;15.73;;;15.10;99.90;;;;;;2092780;28;20028;-78
2023/09/17 01:36:16;;;;;;;18.98;15.90;;;15.10;99.90;;;;;;2090249;28;20044;-78
2023/09/17 01:37:28;;;;;;;20.10;16.38;;;15.10;99.90;;;;;;2090351;28;20048;-77
2023/09/17 01:38:38;;;;;;;18.60;16.13;;;15.10;99.90;;;;;;2098134;28;20175;-79
2023/09/17 01:39:45;;;;;;;18.70;16.27;;;15.10;99.90;;;;;;2099137;28;20020;-80
2023/09/17 01:40:49;;;;;;;17.38;15.38;;;15.00;99.90;;;;;;2096580;28;20100;-79
2023/09/17 01:41:50;;;;;;;17.58;15.68;;;15.00;99.90;;;;;;2081938;28;20902;-79
2023/09/17 01:42:52;;;;;;;18.27;15.48;;;15.10;99.90;;;;;;2079020;28;20025;-80
2023/09/17 01:43:53;;;;;;;20.05;16.17;;;15.10;99.90;;;;;;2086926;28;20119;-80
2023/09/17 01:44:56;;;;;;;19.92;16.23;;;15.10;99.90;;;;;;2093570;28;20115;-80
2023/09/17 01:45:58;;;;;;;22.25;14.93;;;15.00;99.90;;;;;;2092368;28;20761;-79
2023/09/17 01:47:00;;;;;;;17.60;15.73;;;15.00;99.90;;;;;;2085546;28;20024;-79
2023/09/17 01:48:02;;;;;;;17.60;14.80;;;15.00;99.90;;;;;;2092400;28;20065;-78
2023/09/17 01:49:04;;;;;;;18.67;15.18;;;15.00;99.90;;;;;;2092798;28;20023;-79
2023/09/17 01:50:05;;;;;;;17.60;15.27;;;15.00;99.90;;;;;;2085037;28;20527;-79
2023/09/17 01:51:07;;;;;;;17.92;14.95;;;15.00;99.90;;;;;;2082901;28;20092;-79
2023/09/17 01:52:09;;;;;;;16.85;15.05;;;15.00;99.90;;;;;;2084553;28;20568;-79
2023/09/17 01:53:12;;;;;;;21.55;15.75;;;15.00;99.90;;;;;;2085244;28;20547;-79
2023/09/17 01:54:14;;;;;;;22.13;15.52;;;15.00;99.90;;;;;;2089097;28;20079;-80
2023/09/17 01:55:14;;;;;;;21.92;15.98;;;15.00;99.90;;;;;;2094570;28;20151;-80
2023/09/17 01:56:17;;;;;;;24.13;16.50;;;15.00;99.90;;;;;;2094112;28;20029;-80
2023/09/17 01:57:19;;;;;;;20.55;15.73;;;15.00;99.90;;;;;;2078067;28;20040;-79
2023/09/17 01:58:21;;;;;;;19.50;15.82;;;15.00;99.90;;;;;;2079532;28;20047;-79
2023/09/17 01:59:22;;;;;;;21.52;14.98;;;15.00;99.90;;;;;;2089154;28;20040;-79
2023/09/17 02:00:23;;;;;;;20.73;15.25;;;15.00;99.90;;;;;;2084178;28;20027;-80
2023/09/17 02:01:23;;;;;;;18.55;14.90;;;15.00;99.90;;;;;;2094244;28;20411;-79
2023/09/17 02:02:24;;;;;;;17.02;14.68;;;15.00;99.90;;;;;;2090094;28;20031;-78
2023/09/17 02:03:24;;;;;;;17.13;14.50;;;15.00;99.90;;;;;;2086006;28;20198;-79
2023/09/17 02:04:25;;;;;;;17.17;14.77;;;15.00;99.90;;;;;;2075893;28;20061;-79
2023/09/17 02:05:25;;;;;;;21.15;15.05;;;15.00;99.90;;;;;;2076229;28;20027;-79
2023/09/17 02:06:27;;;;;;;16.90;14.88;;;15.00;99.90;;;;;;2087522;28;20087;-80
2023/09/17 02:07:27;;;;;;;18.30;14.80;;;15.00;99.90;;;;;;2095849;28;20110;-80
2023/09/17 02:08:28;;;;;;;18.98;14.75;;;15.00;99.90;;;;;;2085701;28;20029;-80
2023/09/17 02:09:29;;;;;;;16.73;15.00;;;15.00;99.90;;;;;;2083979;28;20456;-79
2023/09/17 02:10:29;;;;;;;17.30;14.35;;;15.00;99.90;;;;;;2074411;28;20539;-80
2023/09/17 02:11:30;;;;;;;17.73;14.32;;;14.90;99.90;;;;;;2084327;28;20037;-80
2023/09/17 02:12:30;;;;;;;17.23;14.20;;;14.90;99.90;;;;;;2096642;28;20105;-80
2023/09/17 02:13:31;;;;;;;16.65;13.75;;;14.90;99.90;;;;;;2091554;28;20116;-79
2023/09/17 02:14:32;;;;;;;16.40;14.05;;;14.90;99.90;;;;;;2083623;28;20442;-78
2023/09/17 02:15:33;;;;;;;18.55;15.13;;;14.90;99.90;;;;;;2075735;28;20064;-79
2023/09/17 02:16:33;;;;;;;16.08;13.55;;;14.90;99.90;;;;;;2079736;28;20429;-79
2023/09/17 02:17:38;;;;;;;17.45;13.88;;;14.90;99.90;;;;;;2084543;28;20028;-79
2023/09/17 02:18:38;;;;;;;16.80;13.45;;;14.90;99.90;;;;;;2092329;28;20020;-79
2023/09/17 02:19:39;;;;;;;16.40;13.98;;;14.90;99.90;;;;;;2087669;28;20461;-79
2023/09/17 02:20:40;;;;;;;14.88;12.98;;;14.90;99.90;;;;;;2092791;28;20636;-79
2023/09/17 02:21:41;;;;;;;15.27;13.65;;;14.90;99.90;;;;;;2087141;28;20041;-79
2023/09/17 02:22:42;;;;;;;16.88;13.77;;;14.90;99.90;;;;;;2095148;28;20951;-78
2023/09/17 02:23:44;;;;;;;15.95;13.20;;;14.90;99.90;;;;;;2091208;28;20024;-80
2023/09/17 02:24:46;;;;;;;15.55;13.63;;;14.90;99.90;;;;;;2086750;28;20021;-80
2023/09/17 02:25:47;;;;;;;16.08;13.55;;;14.90;99.90;;;;;;2094850;28;20100;-79
2023/09/17 02:26:47;;;;;;;17.58;13.57;;;14.90;99.90;;;;;;2088074;28;20087;-79
2023/09/17 02:27:48;;;;;;;16.75;13.43;;;14.90;99.90;;;;;;2084038;28;20029;-79
2023/09/17 02:28:49;;;;;;;17.25;13.95;;;14.90;99.90;;;;;;2086372;28;20031;-80
2023/09/17 02:29:49;;;;;;;16.45;13.82;;;14.80;99.90;;;;;;2092276;28;20109;-80
2023/09/17 02:30:50;;;;;;;15.88;14.02;;;14.80;99.90;;;;;;2086784;28;20021;-80
2023/09/17 02:31:51;;;;;;;17.52;13.63;;;14.80;99.90;;;;;;2075941;28;20026;-79
2023/09/17 02:32:51;;;;;;;17.15;13.65;;;14.80;99.90;;;;;;2072587;28;20026;-79
2023/09/17 02:33:52;;;;;;;17.10;13.75;;;14.80;99.90;;;;;;2073415;28;21005;-79
2023/09/17 02:34:53;;;;;;;15.73;13.93;;;14.80;99.90;;;;;;2087967;28;20033;-80
2023/09/17 02:35:54;;;;;;;15.65;13.60;;;14.70;99.90;;;;;;2095343;28;20540;-79
2023/09/17 02:36:54;;;;;;;17.02;13.52;;;14.70;99.90;;;;;;2087470;28;20504;-72
2023/09/17 02:37:55;;;;;;;15.50;13.43;;;14.70;99.90;;;;;;2091867;28;20036;-86
2023/09/17 02:38:56;;;;;;;14.40;12.90;;;14.70;99.90;;;;;;2090667;28;20458;-71
2023/09/17 02:39:57;;;;;;;16.98;14.13;;;14.70;99.90;;;;;;2085394;28;20081;-71
2023/09/17 02:40:58;;;;;;;18.65;13.93;;;14.80;99.90;;;;;;2088622;28;20040;-79
2023/09/17 02:41:59;;;;;;;15.25;13.60;;;14.80;99.90;;;;;;2091181;28;20016;-79
2023/09/17 02:43:01;;;;;;;17.55;13.88;;;14.80;99.90;;;;;;2092684;28;20036;-78
2023/09/17 02:44:02;;;;;;;17.15;13.73;;;14.80;99.90;;;;;;2092314;28;20120;-79
2023/09/17 02:45:05;;;;;;;18.75;14.15;;;14.80;99.90;;;;;;2092060;28;20047;-77
2023/09/17 02:46:06;;;;;;;14.93;13.35;;;14.80;99.90;;;;;;2084768;28;20017;-78
2023/09/17 02:47:07;;;;;;;16.88;13.45;;;14.80;99.90;;;;;;2091608;28;20056;-79
2023/09/17 02:48:07;;;;;;;16.30;13.43;;;14.80;99.90;;;;;;2091717;28;20023;-78
2023/09/17 02:49:08;;;;;;;16.65;13.40;;;14.80;99.90;;;;;;2079699;28;20029;-78
2023/09/17 02:50:09;;;;;;;16.90;13.90;;;14.80;99.90;;;;;;2086779;28;20021;-78
2023/09/17 02:51:10;;;;;;;16.83;13.80;;;14.70;99.90;;;;;;2084456;28;20032;-78
2023/09/17 02:52:11;;;;;;;15.57;13.13;;;14.70;99.90;;;;;;2076373;28;20045;-78
2023/09/17 02:53:11;;;;;;;17.13;13.90;;;14.70;99.90;;;;;;2073581;28;20034;-76
2023/09/17 02:54:12;;;;;;;16.33;13.80;;;14.70;99.90;;;;;;2083683;28;20021;-79
2023/09/17 02:55:13;;;;;;;16.95;13.40;;;14.70;99.90;;;;;;2085022;28;20226;-79
2023/09/17 02:56:13;;;;;;;18.00;14.05;;;14.70;99.90;;;;;;2086629;28;20047;-79
2023/09/17 02:57:14;;;;;;;15.77;13.00;;;14.60;99.90;;;;;;2078957;28;20029;-79
2023/09/17 02:58:15;;;;;;;15.20;12.95;;;14.70;99.90;;;;;;2077654;28;20269;-68
2023/09/17 02:59:15;;;;;;;15.25;13.45;;;14.70;99.90;;;;;;2079242;28;20610;-69
2023/09/17 03:00:17;;;;;;;15.23;12.98;;;14.70;99.90;;;;;;2091654;28;20141;-68
2023/09/17 03:01:18;;;;;;;15.52;13.45;;;14.60;99.90;;;;;;2090998;28;20060;-68
2023/09/17 03:02:19;;;;;;;17.10;13.38;;;14.60;99.90;;;;;;2087529;28;20116;-68
2023/09/17 03:03:20;;;;;;;14.90;13.02;;;14.60;99.90;;;;;;2081868;28;20075;-68
2023/09/17 03:04:21;;;;;;;14.23;12.40;;;14.60;99.90;;;;;;2092023;28;20165;-68
2023/09/17 03:05:22;;;;;;;16.35;13.52;;;14.60;99.90;;;;;;2086477;28;20025;-68
2023/09/17 03:06:23;;;;;;;15.07;13.48;;;14.60;99.90;;;;;;2076757;28;20021;-68
2023/09/17 03:07:24;;;;;;;14.85;13.25;;;14.60;99.90;;;;;;2083979;28;20024;-69
2023/09/17 03:08:26;;;;;;;16.05;13.05;;;14.60;99.90;;;;;;2096800;28;20042;-84
2023/09/17 03:09:27;;;;;;;16.60;13.95;;;14.60;99.90;;;;;;2085615;28;20448;-84
2023/09/17 03:10:27;;;;;;;16.58;13.05;;;14.60;99.90;;;;;;2087857;28;20021;-84
2023/09/17 03:11:29;;;;;;;15.75;13.13;;;14.60;99.90;;;;;;2093052;28;20112;-84
2023/09/17 03:12:34;;;;;;;15.55;13.13;;;14.60;99.90;;;;;;2088028;28;20542;-85
2023/09/17 03:13:36;;;;;;;13.90;12.50;;;14.60;99.90;;;;;;2084826;28;20028;-84
2023/09/17 03:14:39;;;;;;;14.23;12.73;;;14.50;99.90;;;;;;2077658;28;20048;-85
2023/09/17 03:15:41;;;;;;;14.35;12.60;;;14.50;99.90;;;;;;2096097;28;20198;-85
2023/09/17 03:16:43;;;;;;;15.00;12.52;;;14.50;99.90;;;;;;2085760;28;20580;-85
2023/09/17 03:17:44;;;;;;;14.43;12.45;;;14.50;99.90;;;;;;2080531;28;20017;-88
2023/09/17 03:18:45;;;;;;;15.40;13.13;;;14.50;99.90;;;;;;2078242;28;20017;-87
2023/09/17 03:19:46;;;;;;;15.57;12.63;;;14.60;99.90;;;;;;2079381;28;20045;-87
2023/09/17 03:20:49;;;;;;;16.00;12.90;;;14.60;99.90;;;;;;2093649;28;20016;-88
2023/09/17 03:21:50;;;;;;;16.05;13.07;;;14.50;99.90;;;;;;2094785;28;20040;-88
2023/09/17 03:22:51;;;;;;;15.00;12.48;;;14.50;99.90;;;;;;2094931;28;20020;-88
2023/09/17 03:23:52;;;;;;;15.27;12.80;;;14.50;99.90;;;;;;2089164;28;20096;-88
2023/09/17 03:24:56;;;;;;;15.68;13.25;;;14.50;99.90;;;;;;2093012;28;20021;-88
2023/09/17 03:25:57;;;;;;;13.77;12.07;;;14.50;99.90;;;;;;2085947;28;20025;-88
2023/09/17 03:26:58;;;;;;;14.77;12.45;;;14.50;99.90;;;;;;2089532;28;20029;-85
2023/09/17 03:27:59;;;;;;;14.13;12.30;;;14.50;99.90;;;;;;2098913;28;20184;-87
2023/09/17 03:29:01;;;;;;;14.13;12.63;;;14.50;99.90;;;;;;2090328;28;20074;-87
2023/09/17 03:30:05;;;;;;;14.95;12.98;;;14.50;99.90;;;;;;2081893;28;20107;-88
2023/09/17 03:31:06;;;;;;;15.57;13.23;;;14.50;99.90;;;;;;2094013;28;20033;-85
2023/09/17 03:32:07;;;;;;;15.30;12.45;;;14.50;99.90;;;;;;2097352;28;20472;-87
2023/09/17 03:33:07;;;;;;;14.48;12.27;;;14.50;99.90;;;;;;2085534;28;20120;-85
2023/09/17 03:34:17;;;;;;;14.25;12.00;;;14.50;99.90;;;;;;2088890;28;20051;-85
2023/09/17 03:35:17;;;;;;;14.55;12.68;;;14.50;99.90;;;;;;2096069;28;20259;-87
2023/09/17 03:36:18;;;;;;;15.18;12.20;;;14.50;99.90;;;;;;2093456;28;20020;-87
2023/09/17 03:37:19;;;;;;;13.60;12.20;;;14.50;99.90;;;;;;2085038;28;20072;-86
2023/09/17 03:38:20;;;;;;;15.52;12.52;;;14.40;99.90;;;;;;2089147;28;20096;-86
2023/09/17 03:39:22;;;;;;;15.10;12.18;;;14.50;99.90;;;;;;2090365;28;20044;-87
2023/09/17 03:40:22;;;;;;;13.88;11.88;;;14.40;99.90;;;;;;2082487;28;20030;-87
2023/09/17 03:41:23;;;;;;;14.45;12.27;;;14.50;99.90;;;;;;2090838;28;20151;-86
2023/09/17 03:42:24;;;;;;;16.48;12.50;;;14.50;99.90;;;;;;2104635;28;20460;-86
2023/09/17 03:43:27;;;;;;;14.18;12.02;;;14.40;99.90;;;;;;2092055;28;20025;-86
2023/09/17 03:44:27;;;;;;;15.82;12.18;;;14.40;99.90;;;;;;2091152;28;20037;-87
2023/09/17 03:45:28;;;;;;;14.05;11.35;;;14.40;99.90;;;;;;2096599;28;20120;-86
2023/09/17 03:46:32;;;;;;;13.65;11.80;;;14.40;99.90;;;;;;2097238;28;20047;-86
2023/09/17 03:47:33;;;;;;;14.20;12.20;;;14.40;99.90;;;;;;2085689;28;20021;-86
2023/09/17 03:48:35;;;;;;;16.50;12.52;;;14.40;99.90;;;;;;2084397;28;20079;-87
2023/09/17 03:49:38;;;;;;;14.50;11.90;;;14.50;99.90;;;;;;2080483;28;20029;-86
2023/09/17 03:50:41;;;;;;;13.02;11.63;;;14.40;99.90;;;;;;2085425;28;20032;-85
2023/09/17 03:51:42;;;;;;;15.60;11.80;;;14.40;99.90;;;;;;2091186;28;20108;-85
2023/09/17 03:52:47;;;;;;;13.40;12.00;;;14.40;99.90;;;;;;2084935;28;20024;-86
2023/09/17 03:53:48;;;;;;;15.35;12.50;;;14.40;99.90;;;;;;2086610;28;20140;-85
2023/09/17 03:54:49;;;;;;;13.57;12.18;;;14.50;99.90;;;;;;2081533;28;20112;-86
2023/09/17 03:55:50;;;;;;;13.20;11.80;;;14.50;99.90;;;;;;2079046;28;20103;-86
2023/09/17 03:56:51;;;;;;;13.32;11.90;;;14.40;99.90;;;;;;2068956;28;20061;-87
2023/09/17 03:57:55;;;;;;;14.98;12.18;;;14.40;99.90;;;;;;2070829;28;20050;-88
2023/09/17 03:58:57;;;;;;;14.18;12.32;;;14.40;99.90;;;;;;2087075;28;20504;-88
2023/09/17 03:59:59;;;;;;;14.18;12.35;;;14.50;99.90;;;;;;2090268;28;20490;-89
2023/09/17 04:01:00;;;;;;;15.43;12.77;;;14.40;99.90;;;;;;2092444;28;20020;-88
2023/09/17 04:02:00;;;;;;;13.90;11.80;;;14.40;99.90;;;;;;2092313;28;20017;-88
2023/09/17 04:03:01;;;;;;;13.13;11.70;;;14.40;99.90;;;;;;2085925;28;20262;-88
2023/09/17 04:04:02;;;;;;;14.32;11.77;;;14.40;99.90;;;;;;2088405;28;20056;-87
2023/09/17 04:05:14;;;;;;;13.25;11.85;;;14.40;99.90;;;;;;2087877;28;20031;-87
2023/09/17 04:06:15;;;;;;;13.85;11.88;;;14.30;99.90;;;;;;2090741;28;20287;-87
2023/09/17 04:07:16;;;;;;;14.52;12.25;;;14.30;99.90;;;;;;2097084;28;20035;-86
2023/09/17 04:08:16;;;;;;;14.52;12.23;;;14.30;99.90;;;;;;2081962;28;20084;-85
2023/09/17 04:09:17;;;;;;;14.48;12.18;;;14.30;99.90;;;;;;2086728;28;20259;-86
2023/09/17 04:10:19;;;;;;;14.52;12.25;;;14.30;99.90;;;;;;2082420;28;20127;-86
2023/09/17 04:11:20;;;;;;;16.55;12.10;;;14.30;99.90;;;;;;2091675;28;20521;-86
2023/09/17 04:12:21;;;;;;;14.05;11.85;;;14.30;99.90;;;;;;2081180;28;20035;-87
2023/09/17 04:13:22;;;;;;;12.63;11.32;;;14.30;99.90;;;;;;2083768;28;20537;-86
2023/09/17 04:14:22;;;;;;;15.30;11.77;;;14.30;99.90;;;;;;2094009;28;20043;-86
2023/09/17 04:15:23;;;;;;;14.20;11.63;;;14.30;99.90;;;;;;2091701;28;20021;-87
2023/09/17 04:16:24;;;;;;;15.63;11.60;;;14.30;99.90;;;;;;2088178;28;20043;-87
2023/09/17 04:17:24;;;;;;;15.77;11.98;;;14.30;99.90;;;;;;2082839;28;20065;-88
2023/09/17 04:18:25;;;;;;;13.68;12.20;;;14.30;99.90;;;;;;2095053;28;20532;-89
2023/09/17 04:19:29;;;;;;;14.98;12.15;;;14.20;99.90;;;;;;2095044;28;20209;-89
2023/09/17 04:20:30;;;;;;;14.85;12.18;;;14.20;99.90;;;;;;2096675;28;20103;-89
2023/09/17 04:21:30;;;;;;;13.73;12.25;;;14.20;99.90;;;;;;2094585;28;20122;-89
2023/09/17 04:22:33;;;;;;;13.75;11.82;;;14.20;99.90;;;;;;2097635;28;20470;-86
2023/09/17 04:23:33;;;;;;;13.30;11.75;;;14.20;99.90;;;;;;2093133;28;20078;-87
2023/09/17 04:24:35;;;;;;;14.27;11.70;;;14.20;99.90;;;;;;2096050;28;20032;-85
2023/09/17 04:25:35;;;;;;;30.80;23.75;;;14.20;99.90;;;;;;2087392;28;20036;-86
2023/09/17 04:26:36;;;;;;;24.60;19.52;;;14.20;99.90;;;;;;2088348;28;20419;-87
2023/09/17 04:27:42;;;;;;;16.48;14.23;;;14.20;99.90;;;;;;2095086;28;20131;-84
2023/09/17 04:28:46;;;;;;;15.65;12.55;;;14.20;99.90;;;;;;2084692;28;20032;-87
2023/09/17 04:29:49;;;;;;;17.25;11.63;;;14.20;99.90;;;;;;2077401;28;20156;-88
2023/09/17 04:30:50;;;;;;;15.43;12.10;;;14.20;99.90;;;;;;2074857;28;20036;-87
2023/09/17 04:31:51;;;;;;;16.60;12.02;;;14.20;99.90;;;;;;2096750;28;20034;-87
2023/09/17 04:32:54;;;;;;;14.70;12.15;;;14.20;99.90;;;;;;2093706;28;20119;-86
2023/09/17 04:33:56;;;;;;;15.32;12.15;;;14.20;99.90;;;;;;2090117;28;20025;-89
2023/09/17 04:34:56;;;;;;;13.23;11.82;;;14.20;99.90;;;;;;2092526;28;20060;-89
2023/09/17 04:35:58;;;;;;;14.07;11.43;;;14.20;99.90;;;;;;2096151;28;20470;-87
2023/09/17 04:37:00;;;;;;;13.35;11.95;;;14.20;99.90;;;;;;2095784;28;20028;-87
2023/09/17 04:38:01;;;;;;;13.43;12.00;;;14.20;99.90;;;;;;2094972;28;20145;-89
2023/09/17 04:39:04;;;;;;;13.48;11.88;;;14.20;99.90;;;;;;2085998;28;20025;-88
2023/09/17 04:40:08;;;;;;;14.55;11.77;;;14.20;99.90;;;;;;2089445;28;20029;-89
2023/09/17 04:41:10;;;;;;;13.77;12.10;;;14.20;99.90;;;;;;2094268;28;20034;-89
2023/09/17 04:42:10;;;;;;;13.88;12.40;;;14.20;99.90;;;;;;2097338;28;20020;-89
2023/09/17 04:43:11;;;;;;;14.00;11.68;;;14.20;99.90;;;;;;2082348;28;20039;-88
2023/09/17 04:44:12;;;;;;;16.20;12.20;;;14.10;99.90;;;;;;2085666;28;20507;-88
2023/09/17 04:45:34;;;;;;;14.57;11.77;;;14.10;99.90;;;;;;2097673;28;20038;-88
2023/09/17 04:46:46;;;;;;;14.40;11.68;;;14.10;99.90;;;;;;2095948;28;20009;-88
2023/09/17 04:47:48;;;;;;;14.40;11.88;;;14.10;99.90;;;;;;2094037;28;20009;-87
2023/09/17 04:48:48;;;;;;;14.95;12.00;;;14.10;99.90;;;;;;2086887;28;20097;-87
2023/09/17 04:49:49;;;;;;;15.27;12.18;;;14.10;99.90;;;;;;2097462;28;20025;-86
2023/09/17 04:50:50;;;;;;;13.90;11.93;;;14.10;99.90;;;;;;2101853;28;20028;-87
2023/09/17 04:51:51;;;;;;;14.75;12.02;;;14.10;99.90;;;;;;2096274;28;20025;-88
2023/09/17 04:52:52;;;;;;;13.38;11.93;;;14.10;99.90;;;;;;2098834;28;20067;-88
2023/09/17 04:53:53;;;;;;;18.23;12.45;;;14.10;99.90;;;;;;2102156;28;20089;-87
2023/09/17 04:54:54;;;;;;;15.52;12.27;;;14.10;99.90;;;;;;2098316;28;20035;-87
2023/09/17 04:55:55;;;;;;;14.73;12.23;;;14.20;99.90;;;;;;2101721;28;20019;-88
2023/09/17 04:57:00;;;;;;;15.55;11.88;;;14.20;99.90;;;;;;2095432;28;20032;-87
2023/09/17 04:58:00;;;;;;;13.68;11.27;;;14.10;99.90;;;;;;2091453;28;20026;-89
2023/09/17 04:59:01;;;;;;;14.30;11.68;;;14.10;99.90;;;;;;2091507;28;20071;-88
2023/09/17 05:00:10;;;;;;;12.68;11.18;;;14.10;99.90;;;;;;2104508;28;20086;-88
2023/09/17 05:01:12;;;;;;;14.18;11.38;;;14.10;99.90;;;;;;2094635;28;20025;-91
2023/09/17 05:02:14;;;;;;;14.30;11.50;;;14.10;99.90;;;;;;2091482;28;20018;-90
2023/09/17 05:03:15;;;;;;;16.60;12.00;;;14.10;99.90;;;;;;2098025;28;20045;-89
2023/09/17 05:04:15;;;;;;;15.32;12.18;;;14.10;99.90;;;;;;2079657;28;20029;-89
2023/09/17 05:05:18;;;;;;;14.05;11.60;;;14.10;99.90;;;;;;2075301;28;20030;-87
2023/09/17 05:06:19;;;;;;;12.77;11.48;;;14.10;99.90;;;;;;2083906;28;20526;-87
2023/09/17 05:07:21;;;;;;;13.90;11.55;;;14.10;99.90;;;;;;2086583;28;20025;-87
2023/09/17 05:08:22;;;;;;;12.93;10.95;;;14.10;99.90;;;;;;2090372;28;20118;-88
2023/09/17 05:09:23;;;;;;;12.98;11.00;;;14.10;99.90;;;;;;2089790;28;20033;-87
2023/09/17 05:10:23;;;;;;;14.05;11.10;;;14.10;99.90;;;;;;2087637;28;20126;-86
2023/09/17 05:11:24;;;;;;;13.43;11.30;;;14.10;99.90;;;;;;2102222;28;20056;-88
2023/09/17 05:12:25;;;;;;;13.15;11.32;;;14.10;99.90;;;;;;2095566;28;20035;-87
2023/09/17 05:13:26;;;;;;;13.13;11.70;;;14.20;99.90;;;;;;2088031;28;20166;-88
2023/09/17 05:14:28;;;;;;;12.95;10.93;;;14.20;99.90;;;;;;2090499;28;20036;-87